Time;durP1;ratioP1;P1;durP2;ratioP2;P2;SDS_P1;SDS_P2;PMS_P1;PMS_P2;Temp;Humidity;BMP_temperature;BMP_pressure;BME280_temperature;BME280_humidity;BME280_pressure;Samples;Min_cycle;Max_cycle;Signal;HPM_P1;HPM_P2
2022/07/16 00:03:34;;;;;;;69.60;4.67;;;19.00;1.00;;;;;;5081047;28;20156;-83
2022/07/16 00:06:00;;;;;;;67.60;5.00;;;19.00;1.00;;;;;;5080425;28;20403;-83
2022/07/16 00:08:26;;;;;;;68.40;5.03;;;19.00;1.00;;;;;;5079838;28;20188;-81
2022/07/16 00:10:51;;;;;;;70.23;5.60;;;18.90;1.00;;;;;;5078881;28;20171;-81
2022/07/16 00:13:17;;;;;;;67.87;6.37;;;18.90;1.00;;;;;;5079078;28;20226;-82
2022/07/16 00:15:43;;;;;;;69.97;5.50;;;18.90;1.00;;;;;;5079360;28;20238;-82
2022/07/16 00:20:55;;;;;;;73.83;5.67;;;18.80;1.00;;;;;;5038275;28;20183;-81
2022/07/16 00:23:20;;;;;;;71.40;7.23;;;18.70;1.00;;;;;;5079249;28;20416;-82
2022/07/16 00:25:46;;;;;;;69.17;6.80;;;18.70;1.00;;;;;;5078632;28;20175;-81
2022/07/16 00:28:12;;;;;;;71.37;6.60;;;18.70;1.00;;;;;;5079041;28;20224;-82
2022/07/16 00:30:37;;;;;;;71.87;6.60;;;18.70;1.00;;;;;;5060787;28;20620;-81
2022/07/16 00:33:03;;;;;;;68.90;7.17;;;18.60;1.00;;;;;;5079595;28;20171;-82
2022/07/16 00:35:29;;;;;;;71.57;6.40;;;18.60;1.00;;;;;;5078681;28;20641;-81
2022/07/16 00:37:55;;;;;;;69.60;6.10;;;18.60;1.00;;;;;;5078896;28;20215;-81
2022/07/16 00:40:20;;;;;;;68.67;6.50;;;18.60;1.00;;;;;;5079039;28;20159;-81
2022/07/16 00:42:46;;;;;;;69.27;7.10;;;18.60;1.00;;;;;;5060802;28;20167;-81
2022/07/16 00:45:12;;;;;;;70.07;7.47;;;18.60;1.00;;;;;;5078911;28;20252;-81
2022/07/16 00:47:37;;;;;;;68.47;6.67;;;18.60;1.00;;;;;;5078480;28;20200;-82
2022/07/16 00:50:03;;;;;;;69.00;6.37;;;18.50;1.00;;;;;;5079189;28;20217;-82
2022/07/16 00:52:29;;;;;;;70.60;7.50;;;18.50;1.00;;;;;;5078208;28;20211;-82
2022/07/16 00:54:55;;;;;;;70.27;6.97;;;18.50;1.00;;;;;;5078991;28;20401;-82
2022/07/16 00:57:21;;;;;;;70.67;8.87;;;18.50;1.00;;;;;;5080077;28;20653;-83
2022/07/16 00:59:46;;;;;;;67.30;6.67;;;18.50;1.00;;;;;;5080169;28;20164;-83
2022/07/16 01:02:12;;;;;;;68.80;8.20;;;18.50;1.00;;;;;;5080407;28;20539;-83
2022/07/16 01:04:38;;;;;;;68.67;7.33;;;18.50;1.00;;;;;;5062028;28;20176;-83
2022/07/16 01:07:04;;;;;;;69.00;7.90;;;18.40;1.00;;;;;;5080071;28;20593;-82
2022/07/16 01:09:31;;;;;;;69.20;8.80;;;18.40;1.00;;;;;;5079835;28;20889;-83
2022/07/16 01:11:57;;;;;;;69.80;7.80;;;18.40;1.00;;;;;;5079390;28;20402;-83
2022/07/16 01:14:24;;;;;;;69.10;9.37;;;18.30;1.00;;;;;;5061607;28;20764;-82
2022/07/16 01:16:51;;;;;;;72.80;8.97;;;18.30;1.00;;;;;;5061877;28;20494;-83
2022/07/16 01:19:17;;;;;;;70.00;8.80;;;18.20;1.00;;;;;;5079590;28;20431;-83
2022/07/16 01:21:43;;;;;;;71.00;8.37;;;18.20;1.00;;;;;;5062270;28;20410;-83
2022/07/16 01:24:08;;;;;;;69.60;8.50;;;18.20;1.00;;;;;;5061250;28;20184;-83
2022/07/16 01:26:36;;;;;;;70.83;8.93;;;18.10;1.00;;;;;;5079604;28;20441;-83
2022/07/16 01:29:02;;;;;;;75.07;8.70;;;18.10;1.00;;;;;;5061646;28;20188;-82
2022/07/16 01:31:28;;;;;;;68.77;8.30;;;18.10;1.00;;;;;;5061688;28;20490;-83
2022/07/16 01:36:40;;;;;;;71.00;7.83;;;18.10;1.00;;;;;;5079197;28;20166;-83
2022/07/16 01:39:06;;;;;;;69.07;8.37;;;18.00;1.00;;;;;;5079274;28;21023;-82
2022/07/16 01:41:32;;;;;;;75.43;8.93;;;18.00;1.00;;;;;;5061117;28;20451;-83
2022/07/16 01:43:58;;;;;;;69.03;8.00;;;18.00;1.00;;;;;;5078916;28;20878;-82
2022/07/16 01:46:24;;;;;;;70.37;6.27;;;17.90;1.00;;;;;;5077964;28;20523;-82
2022/07/16 01:48:49;;;;;;;70.10;7.87;;;18.00;1.00;;;;;;5060202;28;20267;-82
2022/07/16 01:51:15;;;;;;;67.87;7.17;;;17.90;1.00;;;;;;5060342;28;20172;-83
2022/07/16 01:53:41;;;;;;;70.30;8.00;;;17.90;1.00;;;;;;5077789;28;20696;-82
2022/07/16 01:56:07;;;;;;;69.77;8.40;;;17.80;1.00;;;;;;5059293;28;20543;-82
2022/07/16 01:58:33;;;;;;;69.07;7.13;;;17.80;1.00;;;;;;5077861;28;20411;-82
2022/07/16 02:00:59;;;;;;;69.73;6.87;;;17.70;1.00;;;;;;5059802;28;20414;-82
2022/07/16 02:03:24;;;;;;;68.07;5.60;;;17.70;1.00;;;;;;5076979;28;20171;-83
2022/07/16 02:05:50;;;;;;;73.00;6.30;;;17.70;1.00;;;;;;5077243;28;20214;-83
2022/07/16 02:08:19;;;;;;;67.63;6.77;;;17.70;1.00;;;;;;5076958;28;20235;-81
2022/07/16 02:10:45;;;;;;;69.03;5.90;;;17.70;1.00;;;;;;5077047;28;20160;-82
2022/07/16 02:13:11;;;;;;;68.70;6.10;;;17.60;1.00;;;;;;5077297;28;20398;-82
2022/07/16 02:15:36;;;;;;;68.33;5.77;;;17.60;1.00;;;;;;5077311;28;20166;-82
2022/07/16 02:18:02;;;;;;;67.60;5.77;;;17.50;2.60;;;;;;5077131;28;20188;-83
2022/07/16 02:20:28;;;;;;;67.27;5.37;;;17.40;4.00;;;;;;5076371;28;20647;-81
2022/07/16 02:22:55;;;;;;;67.17;5.07;;;17.50;4.30;;;;;;5058882;28;20412;-82
2022/07/16 02:25:21;;;;;;;67.47;4.43;;;17.40;5.40;;;;;;5058609;28;20406;-82
2022/07/16 02:30:31;;;;;;;66.67;4.50;;;17.50;4.90;;;;;;5077516;28;20164;-81
2022/07/16 02:32:57;;;;;;;69.87;4.90;;;17.50;5.20;;;;;;5076731;28;20395;-82
2022/07/16 02:35:23;;;;;;;68.17;4.43;;;17.50;5.00;;;;;;5078821;28;20455;-82
2022/07/16 02:37:48;;;;;;;68.47;4.70;;;17.40;6.30;;;;;;5172354;22;20215;-82
2022/07/16 02:40:15;;;;;;;67.90;4.80;;;17.40;7.10;;;;;;5088070;28;20161;-82
2022/07/16 02:42:41;;;;;;;70.13;5.10;;;17.30;8.00;;;;;;5091339;28;20182;-82
2022/07/16 02:45:07;;;;;;;69.33;4.37;;;17.40;8.60;;;;;;5090874;28;20391;-83
2022/07/16 02:47:34;;;;;;;67.90;4.70;;;17.40;8.40;;;;;;5090000;28;20466;-82
2022/07/16 02:50:00;;;;;;;67.40;5.17;;;17.30;9.30;;;;;;5090945;28;20390;-82
2022/07/16 02:52:26;;;;;;;66.77;4.20;;;17.40;9.90;;;;;;5087824;28;20456;-82
2022/07/16 02:54:51;;;;;;;70.20;4.13;;;17.40;10.20;;;;;;5089882;28;20167;-81
2022/07/16 02:57:17;;;;;;;67.87;4.27;;;17.40;10.30;;;;;;5087750;28;20194;-81
2022/07/16 02:59:43;;;;;;;68.40;4.03;;;17.40;11.30;;;;;;5087904;28;20221;-82
2022/07/16 03:02:08;;;;;;;66.67;4.13;;;17.40;12.10;;;;;;5087893;28;20164;-82
2022/07/16 03:04:34;;;;;;;66.70;4.37;;;17.30;13.30;;;;;;5088242;28;20693;-82
2022/07/16 03:07:00;;;;;;;67.10;4.77;;;17.30;14.40;;;;;;5087462;28;20206;-82
2022/07/16 03:09:25;;;;;;;69.07;5.03;;;17.30;14.70;;;;;;5090698;28;20618;-82
2022/07/16 03:11:51;;;;;;;68.03;4.23;;;17.30;15.70;;;;;;5089602;28;20164;-82
2022/07/16 03:14:17;;;;;;;67.17;4.37;;;17.40;15.80;;;;;;5091069;28;20164;-82
2022/07/16 03:16:42;;;;;;;67.67;5.17;;;17.30;15.40;;;;;;5088030;28;20250;-82
2022/07/16 03:19:08;;;;;;;68.33;4.90;;;17.30;16.60;;;;;;5090562;28;20195;-82
2022/07/16 03:21:34;;;;;;;69.00;5.30;;;17.20;17.50;;;;;;5087268;28;20222;-82
2022/07/16 03:23:59;;;;;;;69.70;6.93;;;17.20;18.80;;;;;;5090707;28;20168;-82
2022/07/16 03:26:25;;;;;;;70.97;8.50;;;17.20;20.30;;;;;;5088181;28;20215;-81
2022/07/16 03:28:51;;;;;;;68.60;6.67;;;17.20;20.90;;;;;;5087699;28;20198;-82
2022/07/16 03:31:17;;;;;;;69.40;8.70;;;17.20;21.20;;;;;;5087973;28;20164;-82
2022/07/16 03:33:43;;;;;;;71.10;9.40;;;17.20;22.20;;;;;;5094368;28;20180;-81
2022/07/16 03:36:10;;;;;;;68.43;9.87;;;17.20;22.50;;;;;;5094539;28;20406;-84
2022/07/16 03:41:20;;;;;;;70.20;10.17;;;17.30;24.10;;;;;;5094839;28;20390;-82
2022/07/16 03:43:45;;;;;;;71.80;13.17;;;17.30;25.40;;;;;;5091513;28;20402;-82
2022/07/16 03:46:12;;;;;;;70.67;13.90;;;17.30;25.00;;;;;;5089895;28;20172;-82
2022/07/16 03:48:41;;;;;;;69.90;14.43;;;17.30;25.70;;;;;;5092005;28;20180;-82
2022/07/16 03:51:08;;;;;;;73.40;18.33;;;17.30;25.90;;;;;;5090526;28;20413;-82
2022/07/16 03:53:34;;;;;;;71.30;18.07;;;17.30;26.30;;;;;;5093950;28;20398;-82
2022/07/16 03:56:01;;;;;;;71.87;16.07;;;17.40;27.00;;;;;;5094010;28;20414;-82
2022/07/16 03:58:26;;;;;;;71.60;17.47;;;17.40;27.20;;;;;;5091196;28;20493;-82
2022/07/16 04:00:53;;;;;;;76.37;19.83;;;17.40;27.20;;;;;;5091557;28;20402;-82
2022/07/16 04:03:19;;;;;;;71.97;16.17;;;17.40;28.20;;;;;;5094027;28;20175;-82
2022/07/16 04:05:45;;;;;;;71.80;20.00;;;17.40;29.40;;;;;;5091575;28;20437;-82
2022/07/16 04:08:11;;;;;;;74.00;20.07;;;17.40;31.50;;;;;;5091320;28;20533;-82
2022/07/16 04:10:37;;;;;;;78.50;20.70;;;17.40;31.70;;;;;;5090967;28;20427;-82
2022/07/16 04:13:03;;;;;;;75.83;20.87;;;17.40;32.50;;;;;;5090728;28;20186;-82
2022/07/16 04:15:29;;;;;;;72.00;20.27;;;17.40;32.50;;;;;;5093252;28;20398;-82
2022/07/16 04:17:55;;;;;;;72.80;21.10;;;17.40;33.10;;;;;;5089424;28;20971;-82
2022/07/16 04:20:20;;;;;;;74.53;21.67;;;17.40;34.40;;;;;;5092779;28;20477;-81
2022/07/16 04:22:46;;;;;;;72.00;20.17;;;17.40;35.30;;;;;;5092724;28;20179;-82
2022/07/16 04:25:15;;;;;;;71.17;19.57;;;17.40;36.00;;;;;;5089902;28;20176;-82
2022/07/16 04:27:42;;;;;;;79.33;18.67;;;17.40;37.50;;;;;;5092800;28;20211;-82
2022/07/16 04:30:09;;;;;;;76.70;19.90;;;17.40;38.00;;;;;;5091260;28;20426;-82
2022/07/16 04:32:35;;;;;;;70.90;17.70;;;17.40;38.10;;;;;;5090314;28;20414;-82
2022/07/16 04:35:01;;;;;;;73.10;17.57;;;17.50;38.00;;;;;;5093049;28;20402;-82
2022/07/16 04:37:27;;;;;;;71.20;18.07;;;17.50;38.90;;;;;;5093046;28;20953;-82
2022/07/16 04:39:52;;;;;;;73.17;19.33;;;17.60;39.50;;;;;;5090054;28;20164;-82
2022/07/16 04:42:19;;;;;;;71.70;17.77;;;17.50;39.80;;;;;;5091716;28;20195;-82
2022/07/16 04:44:45;;;;;;;71.67;19.23;;;17.50;41.20;;;;;;5092275;28;20445;-82
2022/07/16 04:47:11;;;;;;;73.50;18.50;;;17.60;40.60;;;;;;5088545;28;20454;-82
2022/07/16 04:49:37;;;;;;;72.73;18.80;;;17.60;41.40;;;;;;5090104;28;20407;-81
2022/07/16 04:52:04;;;;;;;72.70;16.50;;;17.70;41.90;;;;;;5091214;28;20164;-82
2022/07/16 04:54:29;;;;;;;74.47;15.23;;;17.70;41.00;;;;;;5088826;28;20406;-82
2022/07/16 04:56:55;;;;;;;72.80;19.30;;;17.70;40.00;;;;;;5090314;28;20473;-81
2022/07/16 04:59:21;;;;;;;74.10;20.70;;;17.70;39.70;;;;;;5088856;28;20160;-82
2022/07/16 05:01:47;;;;;;;76.57;20.83;;;17.80;38.70;;;;;;5089500;28;20164;-82
2022/07/16 05:04:12;;;;;;;74.10;21.17;;;17.80;34.60;;;;;;5091783;28;20179;-82
2022/07/16 05:06:38;;;;;;;74.13;18.13;;;17.90;32.60;;;;;;5091686;28;20206;-82
2022/07/16 05:09:04;;;;;;;74.67;21.37;;;17.90;31.00;;;;;;5090486;28;20188;-82
2022/07/16 05:11:30;;;;;;;72.23;17.93;;;17.90;31.20;;;;;;5092148;28;20417;-82
2022/07/16 05:13:56;;;;;;;73.43;20.17;;;17.90;30.30;;;;;;5092548;28;20172;-82
2022/07/16 05:16:23;;;;;;;70.57;16.17;;;17.90;31.50;;;;;;5091093;28;20485;-82
2022/07/16 05:18:49;;;;;;;73.43;19.23;;;17.90;30.10;;;;;;5090433;28;20418;-82
2022/07/16 05:21:15;;;;;;;75.07;20.97;;;18.00;30.70;;;;;;5091329;28;20409;-82
2022/07/16 05:23:41;;;;;;;78.40;19.83;;;18.00;30.00;;;;;;5090866;28;20406;-82
2022/07/16 05:26:07;;;;;;;72.37;16.40;;;18.00;31.20;;;;;;5090429;28;20402;-82
2022/07/16 05:28:32;;;;;;;71.00;17.20;;;18.10;30.70;;;;;;5090529;28;20511;-82
2022/07/16 05:30:58;;;;;;;78.00;16.60;;;18.00;31.60;;;;;;5092032;28;20157;-82
2022/07/16 05:33:24;;;;;;;68.97;8.70;;;18.10;29.00;;;;;;5090986;28;20504;-82
2022/07/16 05:35:50;;;;;;;70.37;15.77;;;18.20;26.80;;;;;;5090807;28;20168;-82
2022/07/16 05:38:15;;;;;;;71.77;15.70;;;18.10;28.70;;;;;;5091335;28;20263;-82
2022/07/16 05:40:41;;;;;;;72.00;16.77;;;18.00;29.90;;;;;;5091234;28;20422;-82
2022/07/16 05:43:07;;;;;;;75.43;19.23;;;18.10;30.00;;;;;;5090343;28;20168;-81
2022/07/16 05:45:33;;;;;;;71.70;16.20;;;18.10;30.20;;;;;;5088858;28;20239;-81
2022/07/16 05:47:59;;;;;;;70.00;12.30;;;18.10;30.80;;;;;;5090415;28;20199;-82
2022/07/16 05:50:25;;;;;;;77.30;6.03;;;18.20;28.50;;;;;;5088457;28;20477;-81
2022/07/16 05:52:50;;;;;;;68.50;5.30;;;18.30;22.70;;;;;;5090585;28;20398;-81
2022/07/16 05:55:16;;;;;;;67.17;4.43;;;18.40;20.20;;;;;;5090404;28;20251;-81
2022/07/16 05:57:42;;;;;;;68.90;5.70;;;18.30;18.30;;;;;;5089637;28;20237;-81
2022/07/16 06:00:12;;;;;;;69.40;3.90;;;18.30;20.20;;;;;;5089583;28;20642;-81
2022/07/16 06:02:39;;;;;;;67.70;3.87;;;18.30;18.40;;;;;;5089203;28;20164;-81
2022/07/16 06:05:06;;;;;;;68.27;3.60;;;18.40;14.80;;;;;;5089549;28;20555;-81
2022/07/16 06:07:32;;;;;;;71.73;3.40;;;18.50;13.60;;;;;;5158064;22;20543;-81
2022/07/16 06:09:58;;;;;;;68.20;3.93;;;18.60;13.90;;;;;;5087468;28;20394;-81
2022/07/16 06:12:24;;;;;;;68.57;4.20;;;18.70;9.70;;;;;;5086993;28;20167;-81
2022/07/16 06:14:49;;;;;;;67.83;3.70;;;18.70;11.00;;;;;;5087844;28;20159;-81
2022/07/16 06:17:15;;;;;;;78.43;4.10;;;18.70;9.90;;;;;;5088493;28;20724;-81
2022/07/16 06:19:42;;;;;;;66.73;3.73;;;18.70;8.30;;;;;;5087937;28;20160;-81
2022/07/16 06:22:08;;;;;;;68.17;3.33;;;18.70;8.90;;;;;;5088444;28;20390;-81
2022/07/16 06:24:34;;;;;;;66.17;3.70;;;18.70;9.90;;;;;;5087431;28;20395;-81
2022/07/16 06:27:00;;;;;;;67.00;3.50;;;18.80;6.70;;;;;;5087616;28;20440;-81
2022/07/16 06:29:25;;;;;;;66.87;3.57;;;18.80;7.20;;;;;;5089027;28;20168;-81
2022/07/16 06:31:51;;;;;;;67.37;3.70;;;18.80;8.10;;;;;;5088629;28;20171;-82
2022/07/16 06:34:17;;;;;;;67.60;3.60;;;18.80;9.80;;;;;;5088401;28;20160;-81
2022/07/16 06:36:42;;;;;;;66.97;3.60;;;18.90;7.80;;;;;;5088235;28;20160;-81
2022/07/16 06:39:08;;;;;;;71.13;4.20;;;18.90;5.60;;;;;;5089217;28;20184;-83
2022/07/16 06:41:38;;;;;;;66.40;3.30;;;18.90;7.50;;;;;;5071337;28;20168;-81
2022/07/16 06:44:09;;;;;;;65.87;3.47;;;19.00;6.20;;;;;;5070945;28;20415;-81
2022/07/16 06:46:35;;;;;;;67.17;3.97;;;19.00;1.70;;;;;;5086939;28;20959;-81
2022/07/16 06:49:01;;;;;;;67.23;3.53;;;19.00;1.10;;;;;;5068646;28;20452;-79
2022/07/16 06:51:28;;;;;;;70.37;3.47;;;19.00;2.10;;;;;;5087135;28;20398;-81
2022/07/16 06:53:54;;;;;;;69.70;3.97;;;19.10;2.20;;;;;;5067385;28;20418;-80
2022/07/16 06:56:19;;;;;;;68.73;4.03;;;19.20;1.00;;;;;;5086571;28;20410;-81
2022/07/16 06:58:45;;;;;;;66.70;4.13;;;19.20;1.00;;;;;;5085611;28;20425;-81
2022/07/16 07:01:11;;;;;;;67.50;3.87;;;19.20;1.00;;;;;;5086261;28;20223;-80
2022/07/16 07:03:39;;;;;;;76.20;5.47;;;19.10;1.00;;;;;;5084644;28;20183;-81
2022/07/16 07:06:05;;;;;;;66.80;4.00;;;19.10;1.00;;;;;;5087221;28;20406;-81
2022/07/16 07:08:31;;;;;;;69.17;3.83;;;19.20;1.00;;;;;;5086354;28;20515;-80
2022/07/16 07:10:59;;;;;;;68.50;4.20;;;19.40;1.00;;;;;;5067501;28;20415;-81
2022/07/16 07:13:26;;;;;;;68.07;4.10;;;19.40;1.30;;;;;;5084416;28;20401;-79
2022/07/16 07:15:52;;;;;;;68.50;4.83;;;19.40;2.80;;;;;;5084738;28;20428;-81
2022/07/16 07:18:18;;;;;;;70.70;5.37;;;19.40;3.70;;;;;;5084586;28;20421;-79
2022/07/16 07:20:44;;;;;;;67.70;4.03;;;19.50;6.20;;;;;;5085462;28;20170;-80
2022/07/16 07:23:10;;;;;;;68.63;4.10;;;19.40;6.80;;;;;;5068321;28;20410;-81
2022/07/16 07:25:37;;;;;;;70.40;4.67;;;19.50;9.00;;;;;;5086649;28;20937;-81
2022/07/16 07:28:03;;;;;;;68.80;5.03;;;19.50;11.50;;;;;;5086647;28;20529;-81
2022/07/16 07:30:29;;;;;;;68.07;6.47;;;19.50;12.40;;;;;;5086976;28;20456;-80
2022/07/16 07:32:55;;;;;;;70.67;9.40;;;19.50;17.00;;;;;;5086871;28;20413;-80
2022/07/16 07:35:22;;;;;;;71.97;10.87;;;19.60;17.80;;;;;;5086432;28;20890;-80
2022/07/16 07:37:47;;;;;;;70.70;11.87;;;19.60;18.90;;;;;;5067939;28;20438;-81
2022/07/16 07:40:14;;;;;;;71.53;17.37;;;19.40;24.50;;;;;;5067840;28;20787;-80
2022/07/16 07:42:40;;;;;;;71.40;15.07;;;19.40;30.20;;;;;;5085760;28;20620;-80
2022/07/16 07:45:06;;;;;;;72.37;17.97;;;19.40;29.70;;;;;;5087056;28;20441;-81
2022/07/16 07:47:32;;;;;;;74.37;15.60;;;19.50;31.70;;;;;;5086487;28;20192;-81
2022/07/16 07:49:58;;;;;;;74.03;17.00;;;19.60;33.90;;;;;;5086093;28;20391;-80
2022/07/16 07:52:23;;;;;;;72.47;17.27;;;19.70;33.70;;;;;;5066935;28;20201;-81
2022/07/16 07:54:49;;;;;;;74.33;16.97;;;19.80;32.40;;;;;;5085364;28;20921;-80
2022/07/16 07:57:15;;;;;;;75.93;13.90;;;19.90;29.50;;;;;;5067875;28;20185;-80
2022/07/16 07:59:41;;;;;;;72.13;15.73;;;19.90;35.40;;;;;;5069393;28;20173;-80
2022/07/16 08:02:07;;;;;;;73.07;13.97;;;19.90;31.50;;;;;;5067125;28;20181;-81
2022/07/16 08:04:35;;;;;;;87.57;19.17;;;20.00;33.80;;;;;;5087224;28;20191;-82
2022/07/16 08:07:01;;;;;;;73.63;16.57;;;20.30;35.00;;;;;;5087488;28;20450;-80
2022/07/16 08:09:27;;;;;;;74.30;15.97;;;20.30;28.30;;;;;;5086317;28;20769;-81
2022/07/16 08:11:53;;;;;;;74.47;16.90;;;20.10;28.90;;;;;;5085198;28;20397;-81
2022/07/16 08:14:19;;;;;;;75.17;16.00;;;20.20;30.10;;;;;;5085508;28;20161;-81
2022/07/16 08:16:44;;;;;;;76.73;18.87;;;20.10;28.20;;;;;;5085629;28;20164;-81
2022/07/16 08:19:10;;;;;;;75.43;15.27;;;20.20;27.30;;;;;;5068298;28;20184;-81
2022/07/16 08:21:35;;;;;;;71.57;15.27;;;20.20;29.90;;;;;;5089296;28;20233;-80
2022/07/16 08:27:04;;;;;;;70.33;14.07;;;20.40;25.90;;;;;;5011478;28;20215;-81
2022/07/16 08:29:30;;;;;;;72.13;15.10;;;20.30;27.10;;;;;;5058374;28;20411;-81
2022/07/16 08:31:55;;;;;;;73.90;17.43;;;20.40;27.70;;;;;;5089704;28;20396;-81
2022/07/16 08:34:24;;;;;;;71.50;16.57;;;20.30;26.70;;;;;;5093169;28;20183;-82
2022/07/16 08:36:52;;;;;;;73.50;17.40;;;20.40;24.30;;;;;;5090366;28;20163;-81
2022/07/16 08:39:18;;;;;;;71.10;15.57;;;20.40;24.80;;;;;;5149706;22;20472;-81
2022/07/16 08:41:44;;;;;;;74.80;14.23;;;20.40;23.30;;;;;;5080254;28;20395;-82
2022/07/16 08:44:14;;;;;;;70.87;14.07;;;20.40;23.40;;;;;;5080334;28;20390;-81
2022/07/16 08:46:41;;;;;;;75.10;12.67;;;20.50;25.00;;;;;;5081035;28;20447;-81
2022/07/16 08:49:07;;;;;;;72.53;13.53;;;20.70;21.60;;;;;;5080997;28;20437;-81
2022/07/16 08:51:35;;;;;;;70.47;12.57;;;20.80;20.40;;;;;;5080915;28;20487;-81
2022/07/16 08:54:12;;;;;;;71.07;10.70;;;20.80;18.60;;;;;;5079442;28;20424;-81
2022/07/16 08:56:38;;;;;;;69.97;8.47;;;21.10;15.90;;;;;;5080502;28;20379;-81
2022/07/16 08:59:05;;;;;;;67.67;6.57;;;21.10;12.40;;;;;;5080234;28;20422;-81
2022/07/16 09:01:31;;;;;;;67.07;5.10;;;21.20;11.00;;;;;;5079126;28;20264;-81
2022/07/16 09:03:58;;;;;;;69.50;5.50;;;21.30;9.30;;;;;;5079869;28;20406;-81
2022/07/16 09:06:27;;;;;;;67.80;5.37;;;21.50;9.70;;;;;;5081472;28;20812;-81
2022/07/16 09:08:53;;;;;;;68.27;5.20;;;21.70;7.50;;;;;;5081103;28;20796;-81
2022/07/16 09:11:25;;;;;;;68.20;5.00;;;21.90;5.50;;;;;;5079288;28;20913;-82
2022/07/16 09:14:09;;;;;;;71.77;4.50;;;21.80;3.50;;;;;;5080320;28;20380;-82
2022/07/16 09:16:40;;;;;;;67.20;4.40;;;21.60;2.00;;;;;;5079272;28;20433;-82
2022/07/16 09:19:11;;;;;;;72.53;7.33;;;21.60;5.30;;;;;;5080592;28;20430;-81
2022/07/16 09:21:57;;;;;;;67.17;4.97;;;21.40;5.90;;;;;;5080776;28;20391;-81
2022/07/16 09:24:38;;;;;;;68.37;5.20;;;21.40;7.70;;;;;;5078490;28;20402;-82
2022/07/16 09:27:06;;;;;;;67.67;4.77;;;21.30;8.50;;;;;;5079707;28;20444;-81
2022/07/16 09:29:58;;;;;;;67.17;4.70;;;21.40;8.80;;;;;;5078624;28;20414;-81
2022/07/16 09:32:39;;;;;;;67.37;4.73;;;21.20;10.60;;;;;;5073237;28;20415;-82
2022/07/16 09:35:05;;;;;;;67.80;5.10;;;21.10;10.40;;;;;;5078996;28;20417;-81
2022/07/16 09:37:54;;;;;;;67.47;4.57;;;21.00;12.50;;;;;;5078256;28;20453;-81
2022/07/16 09:40:35;;;;;;;69.90;6.20;;;21.10;11.70;;;;;;5079545;28;20409;-82
2022/07/16 09:43:03;;;;;;;70.10;6.77;;;21.10;13.10;;;;;;5077812;28;20415;-81
2022/07/16 09:45:29;;;;;;;67.80;4.97;;;21.40;13.40;;;;;;5078302;28;20766;-81
2022/07/16 09:47:55;;;;;;;69.10;4.50;;;21.70;10.80;;;;;;5078741;28;20477;-81
2022/07/16 09:50:21;;;;;;;67.23;3.83;;;22.00;7.50;;;;;;5079678;28;20409;-81
2022/07/16 09:52:47;;;;;;;66.57;3.60;;;22.10;1.00;;;;;;5079573;28;20399;-81
2022/07/16 09:55:13;;;;;;;69.70;3.43;;;22.20;1.00;;;;;;5079407;28;20459;-81
2022/07/16 09:57:42;;;;;;;66.20;3.53;;;22.20;1.00;;;;;;5078987;28;20226;-81
2022/07/16 10:00:08;;;;;;;66.27;3.37;;;22.30;1.00;;;;;;5079090;28;20566;-82
2022/07/16 10:02:34;;;;;;;67.50;3.80;;;22.40;1.00;;;;;;5076960;28;20438;-82
2022/07/16 10:05:01;;;;;;;67.33;3.27;;;22.20;1.00;;;;;;5078861;28;20406;-82
2022/07/16 10:07:26;;;;;;;66.60;3.10;;;22.20;1.00;;;;;;5079808;28;20856;-82
2022/07/16 10:09:52;;;;;;;66.67;3.60;;;22.10;1.00;;;;;;5079715;28;20402;-82
2022/07/16 10:12:20;;;;;;;66.03;2.63;;;22.10;1.00;;;;;;5078917;28;20160;-82
2022/07/16 10:14:52;;;;;;;70.03;3.00;;;22.20;1.00;;;;;;5079423;28;20187;-82
2022/07/16 10:17:32;;;;;;;66.00;2.60;;;22.40;1.00;;;;;;5077595;28;20428;-82
2022/07/16 10:20:00;;;;;;;65.50;2.53;;;22.80;1.00;;;;;;5078211;28;20401;-82
2022/07/16 10:22:31;;;;;;;66.40;4.30;;;23.10;1.00;;;;;;5078628;28;20774;-82
2022/07/16 10:24:59;;;;;;;66.90;4.30;;;23.00;1.00;;;;;;5078911;28;20403;-82
2022/07/16 10:27:32;;;;;;;66.30;4.97;;;22.90;1.00;;;;;;5079028;28;20449;-82
2022/07/16 10:30:14;;;;;;;67.57;5.20;;;22.80;1.00;;;;;;5077815;28;20410;-82
2022/07/16 10:32:59;;;;;;;66.87;5.47;;;22.60;1.00;;;;;;5079038;28;20408;-82
2022/07/16 10:35:30;;;;;;;66.77;6.70;;;22.60;1.00;;;;;;5077635;28;20401;-82
2022/07/16 10:38:24;;;;;;;68.13;10.43;;;22.70;1.00;;;;;;5079259;28;20469;-82
2022/07/16 10:41:10;;;;;;;71.23;10.80;;;23.10;1.00;;;;;;5076687;28;20414;-83
2022/07/16 10:43:36;;;;;;;69.00;11.00;;;23.00;1.00;;;;;;5079680;28;20406;-82
2022/07/16 10:46:07;;;;;;;68.60;12.00;;;22.80;1.00;;;;;;5078168;28;20415;-82
2022/07/16 10:48:38;;;;;;;69.00;10.80;;;22.70;1.00;;;;;;5079054;28;20513;-82
2022/07/16 10:51:11;;;;;;;70.30;12.67;;;22.70;1.00;;;;;;5078956;28;20481;-82
2022/07/16 10:54:01;;;;;;;70.10;10.60;;;22.90;1.00;;;;;;5076556;28;20460;-81
2022/07/16 10:56:37;;;;;;;69.27;11.37;;;23.10;1.00;;;;;;5079414;28;20398;-81
2022/07/16 10:59:07;;;;;;;69.63;6.93;;;23.70;1.00;;;;;;5077072;28;20434;-82
2022/07/16 11:01:37;;;;;;;67.20;7.10;;;24.10;1.00;;;;;;5078817;28;20384;-83
2022/07/16 11:04:04;;;;;;;67.10;5.27;;;24.00;1.00;;;;;;5077190;28;20410;-82
2022/07/16 11:06:30;;;;;;;67.57;4.33;;;24.20;1.00;;;;;;5078351;28;20410;-82
2022/07/16 11:08:57;;;;;;;67.60;5.33;;;24.60;1.00;;;;;;5078354;28;20522;-82
2022/07/16 11:11:23;;;;;;;66.93;2.87;;;24.80;1.00;;;;;;5077780;28;20410;-82
2022/07/16 11:13:52;;;;;;;66.40;2.70;;;25.00;1.00;;;;;;5078749;28;20404;-82
2022/07/16 11:16:18;;;;;;;66.80;2.43;;;25.20;1.00;;;;;;5078338;28;20766;-82
2022/07/16 11:18:44;;;;;;;65.40;1.93;;;25.30;1.00;;;;;;5077513;28;20460;-82
2022/07/16 11:21:10;;;;;;;65.73;2.20;;;25.10;1.00;;;;;;5078768;28;20875;-83
2022/07/16 11:23:50;;;;;;;68.73;1.90;;;24.80;1.00;;;;;;5077474;28;20691;-83
2022/07/16 11:26:17;;;;;;;65.90;1.93;;;24.40;1.00;;;;;;5078703;28;20399;-82
2022/07/16 11:29:01;;;;;;;65.70;1.83;;;24.30;1.00;;;;;;5076977;28;20450;-82
2022/07/16 11:31:29;;;;;;;65.37;2.30;;;24.60;1.00;;;;;;5078276;28;20391;-82
2022/07/16 11:34:03;;;;;;;65.80;2.30;;;24.80;1.00;;;;;;5078059;28;20403;-82
2022/07/16 11:36:32;;;;;;;65.67;2.40;;;24.60;1.00;;;;;;5078393;28;20745;-82
2022/07/16 11:39:02;;;;;;;65.17;2.00;;;24.10;1.00;;;;;;5078558;28;20464;-82
2022/07/16 11:41:29;;;;;;;65.80;2.00;;;24.20;1.00;;;;;;5078367;28;20727;-83
2022/07/16 11:43:55;;;;;;;65.67;2.33;;;24.40;1.00;;;;;;5078192;28;20889;-82
2022/07/16 11:46:24;;;;;;;66.50;2.40;;;24.50;1.00;;;;;;5078228;28;20540;-83
2022/07/16 11:48:50;;;;;;;67.87;2.10;;;24.50;1.00;;;;;;5076764;28;20942;-82
2022/07/16 11:51:21;;;;;;;65.90;2.30;;;24.60;1.00;;;;;;5078731;28;20402;-82
2022/07/16 11:53:54;;;;;;;65.73;2.50;;;24.80;1.00;;;;;;5079962;28;20408;-82
2022/07/16 11:56:38;;;;;;;65.43;2.30;;;25.00;1.00;;;;;;5080601;28;20410;-82
2022/07/16 11:59:18;;;;;;;66.77;2.23;;;24.70;1.00;;;;;;5082163;28;20426;-82
2022/07/16 12:01:44;;;;;;;66.80;2.67;;;24.50;1.00;;;;;;5080637;28;20906;-82
2022/07/16 12:04:10;;;;;;;66.10;2.37;;;24.40;1.00;;;;;;5081824;28;20397;-82
2022/07/16 12:06:37;;;;;;;65.93;2.53;;;24.60;1.00;;;;;;5081936;28;20160;-82
2022/07/16 12:09:03;;;;;;;68.30;3.07;;;24.50;1.00;;;;;;5080395;28;20513;-82
2022/07/16 12:11:30;;;;;;;70.93;3.30;;;24.50;1.00;;;;;;5081694;28;20407;-82
2022/07/16 12:13:57;;;;;;;66.70;3.07;;;24.50;1.00;;;;;;5080514;28;20842;-82
2022/07/16 12:16:23;;;;;;;65.90;3.00;;;24.90;1.00;;;;;;5080493;28;20406;-82
2022/07/16 12:19:20;;;;;;;65.97;3.27;;;25.10;1.00;;;;;;5083152;28;20443;-82
2022/07/16 12:21:48;;;;;;;68.83;3.20;;;24.90;1.00;;;;;;5082620;28;20393;-82
2022/07/16 12:24:14;;;;;;;66.00;3.10;;;24.60;1.00;;;;;;5082395;28;20426;-83
2022/07/16 12:26:41;;;;;;;65.47;2.57;;;24.20;1.00;;;;;;5081588;28;20395;-82
2022/07/16 12:29:09;;;;;;;66.20;3.30;;;24.40;1.00;;;;;;5080589;28;20495;-83
2022/07/16 12:31:36;;;;;;;68.10;3.40;;;24.60;1.00;;;;;;5080246;28;20409;-82
2022/07/16 12:34:04;;;;;;;67.70;3.90;;;24.40;1.00;;;;;;5081137;28;20395;-81
2022/07/16 12:36:35;;;;;;;67.07;3.30;;;24.40;1.00;;;;;;5081064;28;20446;-82
2022/07/16 12:39:09;;;;;;;66.23;3.20;;;24.60;1.00;;;;;;5081508;28;20429;-83
2022/07/16 12:41:37;;;;;;;67.00;2.90;;;24.80;1.00;;;;;;5081236;28;20808;-82
2022/07/16 12:44:05;;;;;;;66.87;3.67;;;24.90;1.00;;;;;;5080556;28;20497;-82
2022/07/16 12:46:44;;;;;;;68.20;3.63;;;25.40;1.00;;;;;;5081211;28;20409;-82
2022/07/16 12:49:16;;;;;;;66.47;3.03;;;25.50;1.00;;;;;;5079461;28;20844;-82
2022/07/16 12:51:48;;;;;;;66.17;3.27;;;25.20;1.00;;;;;;5079957;28;20415;-82
2022/07/16 12:54:15;;;;;;;68.40;4.07;;;24.80;1.00;;;;;;5079315;28;20445;-82
2022/07/16 12:59:27;;;;;;;66.17;3.10;;;24.50;1.00;;;;;;5081898;28;20421;-82
2022/07/16 13:01:53;;;;;;;66.30;2.60;;;24.80;1.00;;;;;;5081324;28;20406;-82